createdAt,value
2019-05-18T00:02:12.427Z,77.36
2019-05-18T00:04:43.803Z,77.33
2019-05-18T00:07:15.062Z,77.24
2019-05-18T00:09:46.343Z,77.19
2019-05-18T00:12:17.215Z,77.14
2019-05-18T00:14:47.441Z,77.16
2019-05-18T00:17:25.399Z,77.14
2019-05-18T00:19:51.835Z,77.03
2019-05-18T00:22:22.389Z,77.00
2019-05-18T00:24:53.456Z,77.08
2019-05-18T00:27:23.644Z,77.02
2019-05-18T00:29:53.587Z,76.92
2019-05-18T00:32:24.796Z,76.77
2019-05-18T00:34:55.432Z,76.69
2019-05-18T00:37:26.152Z,76.59
2019-05-18T00:39:56.843Z,76.53
2019-05-18T00:42:27.776Z,76.61
2019-05-18T00:44:58.554Z,76.75
2019-05-18T00:47:40.745Z,76.82
2019-05-18T00:50:01.987Z,76.85
2019-05-18T00:52:32.483Z,76.89
2019-05-18T00:55:03.189Z,76.83
2019-05-18T00:57:34.281Z,76.80
2019-05-18T01:00:05.405Z,77.10
2019-05-18T01:02:36.187Z,77.28
2019-05-18T01:05:07.630Z,77.27
2019-05-18T01:07:38.266Z,77.16
2019-05-18T01:10:09.362Z,77.08
2019-05-18T01:12:39.822Z,77.03
2019-05-18T01:15:11.202Z,77.05
2019-05-18T01:17:55.108Z,77.31
2019-05-18T01:20:15.407Z,77.44
2019-05-18T01:22:45.430Z,77.57
2019-05-18T01:25:15.850Z,77.58
2019-05-18T01:27:46.079Z,77.74
2019-05-18T01:30:17.667Z,77.63
2019-05-18T01:32:48.640Z,77.56
2019-05-18T01:35:18.720Z,77.52
2019-05-18T01:37:50.431Z,77.45
2019-05-18T01:40:24.337Z,77.40
2019-05-18T01:42:54.323Z,77.40
2019-05-18T01:45:24.667Z,77.53
2019-05-18T01:47:54.595Z,77.53
2019-05-18T01:50:24.510Z,77.41
2019-05-18T01:52:56.500Z,77.39
2019-05-18T01:55:28.076Z,77.49
2019-05-18T01:57:59.556Z,77.99
2019-05-18T02:00:29.510Z,78.01
2019-05-18T02:02:59.545Z,78.01
2019-05-18T02:05:29.667Z,77.69
2019-05-18T02:07:59.951Z,78.38
2019-05-18T02:10:30.095Z,78.38
2019-05-18T02:12:59.978Z,78.06
2019-05-18T02:15:29.947Z,78.29
2019-05-18T02:17:59.877Z,78.29
2019-05-18T02:20:29.798Z,77.95
2019-05-18T02:22:59.626Z,78.01
2019-05-18T02:25:29.625Z,77.96
2019-05-18T02:27:59.746Z,78.24
2019-05-18T02:30:29.665Z,77.97
2019-05-18T02:32:59.694Z,77.97
2019-05-18T02:35:29.564Z,77.72
2019-05-18T02:38:15.286Z,77.73
2019-05-18T02:40:46.021Z,77.71
2019-05-18T02:43:16.853Z,77.67
2019-05-18T02:45:46.828Z,77.48
2019-05-18T02:48:16.758Z,77.58
2019-05-18T02:50:46.838Z,77.57
2019-05-18T02:53:16.815Z,77.66
2019-05-18T02:55:46.912Z,77.54
2019-05-18T02:58:16.827Z,77.97
2019-05-18T03:00:47.034Z,78.03
2019-05-18T03:03:17.056Z,78.03
2019-05-18T03:05:47.190Z,78.14
2019-05-18T03:08:17.428Z,78.23
2019-05-18T03:10:47.321Z,78.32
2019-05-18T03:13:17.380Z,78.32
2019-05-18T03:15:47.337Z,78.08
2019-05-18T03:18:17.303Z,78.97
2019-05-18T03:20:47.382Z,78.62
2019-05-18T03:23:17.691Z,78.62
2019-05-18T03:25:47.643Z,79.05
2019-05-18T03:28:17.724Z,78.72
2019-05-18T03:30:47.726Z,78.72
2019-05-18T03:33:17.797Z,79.22
2019-05-18T03:35:47.740Z,79.37
2019-05-18T03:38:18.055Z,79.31
2019-05-18T03:40:47.908Z,79.32
2019-05-18T03:43:17.944Z,78.94
2019-05-18T03:45:47.957Z,78.94
2019-05-18T03:48:17.878Z,78.95
2019-05-18T03:50:47.825Z,78.99
2019-05-18T03:53:18.391Z,79.10
2019-05-18T03:55:48.548Z,78.96
2019-05-18T03:58:18.547Z,78.82
2019-05-18T04:00:48.768Z,78.35
2019-05-18T04:03:18.722Z,78.54
2019-05-18T04:05:48.701Z,78.54
2019-05-18T04:08:18.627Z,78.34
2019-05-18T04:10:48.687Z,78.50
2019-05-18T04:13:18.908Z,78.50
2019-05-18T04:15:49.102Z,78.29
2019-05-18T04:18:19.222Z,78.14
2019-05-18T04:20:49.181Z,78.01
2019-05-18T04:23:19.010Z,78.21
2019-05-18T04:25:49.372Z,78.21
2019-05-18T04:28:19.313Z,77.07
2019-05-18T04:30:49.878Z,77.62
2019-05-18T04:33:19.877Z,77.62
2019-05-18T04:35:49.906Z,77.04
2019-05-18T04:38:20.048Z,77.10
2019-05-18T04:40:50.673Z,76.92
2019-05-18T04:43:20.595Z,76.72
2019-05-18T04:45:50.996Z,76.63
2019-05-18T04:48:21.273Z,76.63
2019-05-18T04:50:51.202Z,76.17
2019-05-18T04:53:21.327Z,76.04
2019-05-18T04:55:51.271Z,75.66
2019-05-18T04:58:21.253Z,75.66
2019-05-18T05:00:51.119Z,75.97
2019-05-18T05:03:21.026Z,75.91
2019-05-18T05:05:51.417Z,76.02
2019-05-18T05:08:21.419Z,76.04
2019-05-18T05:10:51.596Z,75.99
2019-05-18T05:13:21.589Z,75.87
2019-05-18T05:15:51.414Z,75.68
2019-05-18T05:18:21.486Z,75.44
2019-05-18T05:20:51.560Z,75.30
2019-05-18T05:23:21.724Z,75.15
2019-05-18T05:25:51.742Z,74.97
2019-05-18T05:28:21.615Z,74.83
2019-05-18T05:30:51.622Z,74.69
2019-05-18T05:33:21.812Z,74.47
2019-05-18T05:35:52.030Z,74.40
2019-05-18T05:38:21.992Z,74.38
2019-05-18T05:40:52.707Z,74.44
2019-05-18T05:43:22.820Z,74.22
2019-05-18T05:45:53.040Z,74.04
2019-05-18T05:48:23.085Z,73.72
2019-05-18T05:50:53.261Z,73.58
2019-05-18T05:53:23.313Z,73.70
2019-05-18T05:55:53.300Z,73.43
2019-05-18T05:58:23.248Z,73.16
2019-05-18T06:00:53.741Z,72.87
2019-05-18T06:03:24.028Z,72.57
2019-05-18T06:05:55.100Z,72.24
2019-05-18T06:08:25.075Z,71.91
2019-05-18T06:10:55.018Z,71.28
2019-05-18T06:13:24.873Z,70.93
2019-05-18T06:15:54.888Z,70.37
2019-05-18T06:18:24.922Z,69.82
2019-05-18T06:20:55.005Z,69.47
2019-05-18T06:23:25.141Z,69.20
2019-05-18T06:25:55.747Z,68.31
2019-05-18T06:28:25.942Z,67.75
2019-05-18T06:30:58.521Z,66.78
2019-05-18T06:33:28.518Z,66.56
2019-05-18T06:35:58.705Z,65.93
2019-05-18T06:38:29.189Z,65.72
2019-05-18T06:41:00.126Z,65.44
2019-05-18T06:43:30.010Z,65.21
2019-05-18T06:46:00.086Z,65.07
2019-05-18T06:48:30.546Z,64.56
2019-05-18T06:51:07.322Z,64.17
2019-05-18T06:53:32.648Z,64.16
2019-05-18T06:56:03.941Z,64.04
2019-05-18T06:58:34.533Z,63.47
2019-05-18T07:01:05.725Z,63.63
2019-05-18T07:03:37.738Z,63.57
2019-05-18T07:06:07.864Z,63.38
2019-05-18T07:08:37.814Z,63.02
2019-05-18T07:11:08.334Z,62.59
2019-05-18T07:13:38.284Z,62.59
2019-05-18T07:16:08.462Z,62.22
2019-05-18T07:18:38.358Z,61.86
2019-05-18T07:21:21.955Z,61.73
2019-05-18T07:23:43.957Z,61.54
2019-05-18T07:26:14.675Z,61.55
2019-05-18T07:28:44.619Z,61.16
2019-05-18T07:31:14.760Z,60.62
2019-05-18T07:33:44.869Z,60.27
2019-05-18T07:36:14.889Z,59.79
2019-05-18T07:38:45.048Z,59.46
2019-05-18T07:41:15.642Z,59.13
2019-05-18T07:43:45.655Z,58.72
2019-05-18T07:46:16.288Z,58.69
2019-05-18T07:48:46.383Z,58.54
2019-05-18T07:51:16.734Z,58.28
2019-05-18T07:53:46.851Z,58.06
2019-05-18T07:56:18.790Z,57.37
2019-05-18T07:58:48.916Z,57.38
2019-05-18T08:01:20.241Z,57.44
2019-05-18T08:03:50.124Z,56.75
2019-05-18T08:06:20.431Z,56.52
2019-05-18T08:08:54.540Z,56.82
2019-05-18T08:11:24.950Z,56.48
2019-05-18T08:13:54.865Z,56.50
2019-05-18T08:16:25.125Z,56.58
2019-05-18T08:18:58.129Z,56.25
2019-05-18T08:21:27.185Z,56.03
2019-05-18T08:23:57.876Z,56.13
2019-05-18T08:26:28.165Z,56.40
2019-05-18T08:28:58.309Z,55.87
2019-05-18T08:31:28.168Z,55.68
2019-05-18T08:33:58.213Z,55.47
2019-05-18T08:36:31.536Z,55.30
2019-05-18T08:39:01.482Z,55.17
2019-05-18T08:41:31.751Z,54.73
2019-05-18T08:44:04.458Z,54.57
2019-05-18T08:46:40.378Z,55.15
2019-05-18T08:49:10.814Z,55.39
2019-05-18T08:51:40.818Z,54.85
2019-05-18T08:54:11.109Z,55.52
2019-05-18T08:56:41.448Z,55.07
2019-05-18T08:59:11.717Z,55.32
2019-05-18T09:01:42.413Z,55.36
2019-05-18T09:04:13.033Z,55.51
2019-05-18T09:06:43.588Z,55.43
2019-05-18T09:09:13.537Z,55.51
2019-05-18T09:11:44.032Z,55.15
2019-05-18T09:14:14.079Z,54.56
2019-05-18T09:16:44.023Z,55.13
2019-05-18T09:19:14.112Z,54.50
2019-05-18T09:21:44.171Z,53.88
2019-05-18T09:24:14.819Z,54.16
2019-05-18T09:26:45.231Z,53.72
2019-05-18T09:29:15.343Z,53.58
2019-05-18T09:31:45.620Z,53.92
2019-05-18T09:34:15.601Z,53.25
2019-05-18T09:36:45.755Z,53.28
2019-05-18T09:39:15.900Z,52.96
2019-05-18T09:41:47.934Z,53.09
2019-05-18T09:44:18.062Z,52.50
2019-05-18T09:46:47.917Z,52.71
2019-05-18T09:49:19.179Z,52.69
2019-05-18T09:51:49.523Z,51.75
2019-05-18T09:54:19.816Z,51.20
2019-05-18T09:56:50.239Z,50.24
2019-05-18T09:59:20.249Z,50.71
2019-05-18T10:01:50.997Z,51.37
2019-05-18T10:04:21.537Z,51.78
2019-05-18T10:06:51.531Z,51.33
2019-05-18T10:09:22.534Z,51.78
2019-05-18T10:11:53.338Z,51.05
2019-05-18T10:14:23.524Z,50.73
2019-05-18T10:16:56.817Z,50.75
2019-05-18T10:19:28.219Z,50.71
2019-05-18T10:21:58.423Z,50.53
2019-05-18T10:24:28.409Z,49.66
2019-05-18T10:27:00.722Z,49.42
2019-05-18T10:29:34.180Z,49.38
2019-05-18T10:32:11.481Z,49.41
2019-05-18T10:34:41.709Z,49.27
2019-05-18T10:37:18.807Z,49.12
2019-05-18T10:39:55.485Z,48.44
2019-05-18T10:42:25.815Z,47.21
2019-05-18T10:44:56.401Z,47.50
2019-05-18T10:47:26.402Z,47.08
2019-05-18T10:49:56.296Z,47.39
2019-05-18T10:52:26.930Z,46.93
2019-05-18T10:54:56.983Z,46.83
2019-05-18T10:57:27.424Z,47.37
2019-05-18T10:59:57.959Z,46.99
2019-05-18T11:02:28.823Z,47.54
2019-05-18T11:05:01.490Z,48.08
2019-05-18T11:07:32.541Z,47.19
2019-05-18T11:10:02.845Z,46.40
2019-05-18T11:12:42.437Z,46.10
2019-05-18T11:15:13.626Z,45.61
2019-05-18T11:17:45.942Z,46.32
2019-05-18T11:20:19.686Z,46.07
2019-05-18T11:22:50.099Z,45.59
2019-05-18T11:27:51.849Z,45.76
2019-05-18T11:30:24.328Z,45.99
2019-05-18T11:32:58.071Z,45.61
2019-05-18T11:35:32.231Z,45.60
2019-05-18T11:38:02.696Z,44.96
2019-05-18T11:40:33.593Z,44.79
2019-05-18T11:43:05.367Z,45.02
2019-05-18T11:45:35.812Z,45.43
2019-05-18T11:48:07.623Z,44.62
2019-05-18T11:50:38.217Z,44.52
2019-05-18T11:53:08.384Z,44.95
2019-05-18T11:55:38.405Z,45.09
2019-05-18T11:58:09.444Z,44.90
2019-05-18T12:00:40.221Z,45.22
2019-05-18T12:03:14.565Z,45.29
2019-05-18T12:05:45.324Z,45.49
2019-05-18T12:08:16.327Z,45.06
2019-05-18T12:10:47.612Z,44.99
2019-05-18T12:13:17.664Z,44.95
2019-05-18T12:15:47.946Z,45.94
2019-05-18T12:18:19.991Z,45.79
2019-05-18T12:20:50.112Z,45.00
2019-05-18T12:23:21.190Z,44.80
2019-05-18T12:25:51.443Z,44.65
2019-05-18T12:28:21.887Z,44.61
2019-05-18T12:30:52.284Z,44.96
2019-05-18T12:33:22.719Z,44.56
2019-05-18T12:35:52.883Z,44.67
2019-05-18T12:38:22.978Z,44.31
2019-05-18T12:40:54.112Z,44.15
2019-05-18T12:43:24.188Z,44.10
2019-05-18T12:45:54.160Z,43.65
2019-05-18T12:48:24.234Z,43.49
2019-05-18T12:50:54.264Z,44.30
2019-05-18T12:53:24.648Z,44.11
2019-05-18T12:55:54.763Z,43.72
2019-05-18T12:58:24.813Z,44.06
2019-05-18T13:00:54.823Z,43.41
2019-05-18T13:03:24.899Z,43.02
2019-05-18T13:05:55.028Z,42.65
2019-05-18T13:08:25.469Z,42.85
2019-05-18T13:10:55.911Z,42.34
2019-05-18T13:13:25.992Z,42.21
2019-05-18T13:15:56.429Z,42.08
2019-05-18T13:18:26.503Z,42.61
2019-05-18T13:20:56.499Z,42.73
2019-05-18T13:23:26.401Z,43.65
2019-05-18T13:25:56.528Z,43.05
2019-05-18T13:28:26.970Z,43.67
2019-05-18T13:30:56.989Z,42.89
2019-05-18T13:33:27.400Z,43.03
2019-05-18T13:35:58.437Z,43.37
2019-05-18T13:38:28.684Z,43.26
2019-05-18T13:40:58.712Z,42.95
2019-05-18T13:43:28.760Z,43.05
2019-05-18T13:45:58.988Z,43.12
2019-05-18T13:48:29.091Z,43.25
2019-05-18T13:50:59.321Z,43.17
2019-05-18T13:53:29.798Z,42.73
2019-05-18T13:55:59.783Z,42.74
2019-05-18T13:58:29.662Z,42.52
2019-05-18T14:01:00.143Z,41.91
2019-05-18T14:03:30.197Z,41.65
2019-05-18T14:06:00.606Z,41.30
2019-05-18T14:08:30.651Z,41.86
2019-05-18T14:11:01.027Z,41.77
2019-05-18T14:13:31.542Z,41.93
2019-05-18T14:16:01.938Z,42.02
2019-05-18T14:18:32.738Z,42.23
2019-05-18T14:21:02.946Z,41.92
2019-05-18T14:23:32.936Z,41.99
2019-05-18T14:26:06.704Z,41.73
2019-05-18T14:28:39.846Z,40.69
2019-05-18T14:31:10.223Z,40.90
2019-05-18T14:33:40.812Z,41.01
2019-05-18T14:36:10.987Z,40.94
2019-05-18T14:38:41.483Z,41.17
2019-05-18T14:41:11.822Z,40.85
2019-05-18T14:43:41.742Z,40.87
2019-05-18T14:46:11.801Z,40.51
2019-05-18T14:48:41.972Z,40.73
2019-05-18T14:51:12.332Z,40.59
2019-05-18T14:53:43.076Z,40.22
2019-05-18T14:56:14.279Z,40.21
2019-05-18T14:58:44.614Z,40.31
2019-05-18T15:01:17.480Z,40.32
2019-05-18T15:03:47.878Z,40.30
2019-05-18T15:06:18.668Z,40.23
2019-05-18T15:08:48.924Z,39.63
2019-05-18T15:11:20.979Z,39.48
2019-05-18T15:13:50.955Z,39.56
2019-05-18T15:16:21.047Z,39.95
2019-05-18T15:18:51.234Z,39.55
2019-05-18T15:21:21.580Z,39.00
2019-05-18T15:23:51.802Z,38.74
2019-05-18T15:26:39.795Z,38.77
2019-05-18T15:29:10.157Z,38.62
2019-05-18T15:31:40.638Z,38.49
2019-05-18T15:34:11.068Z,38.30
2019-05-18T15:36:41.084Z,37.88
2019-05-18T15:39:11.695Z,37.78
2019-05-18T15:41:44.567Z,37.40
2019-05-18T15:44:20.492Z,37.28
2019-05-18T15:46:50.879Z,37.35
2019-05-18T15:49:21.191Z,36.96
2019-05-18T15:51:51.450Z,36.74
2019-05-18T15:54:21.504Z,36.38
2019-05-18T15:56:52.304Z,36.38
2019-05-18T15:59:22.981Z,36.43
2019-05-18T16:01:53.266Z,36.42
2019-05-18T16:04:23.507Z,36.39
2019-05-18T16:06:53.552Z,36.54
2019-05-18T16:09:23.618Z,36.06
2019-05-18T16:11:54.059Z,35.95
2019-05-18T16:14:24.121Z,35.30
2019-05-18T16:16:55.154Z,35.00
2019-05-18T16:19:26.324Z,35.15
2019-05-18T16:21:56.961Z,35.12
2019-05-18T16:24:27.065Z,34.56
2019-05-18T16:26:57.280Z,34.36
2019-05-18T16:29:27.475Z,34.17
2019-05-18T16:31:57.906Z,34.33
2019-05-18T16:34:28.007Z,34.40
2019-05-18T16:37:00.765Z,34.35
2019-05-18T16:39:29.882Z,34.24
2019-05-18T16:42:00.150Z,34.52
2019-05-18T16:44:30.329Z,34.52
2019-05-18T16:47:00.424Z,34.61
2019-05-18T16:49:30.383Z,34.75
2019-05-18T16:52:06.452Z,34.80
2019-05-18T16:54:37.049Z,34.88
2019-05-18T16:57:07.115Z,34.81
2019-05-18T16:59:37.181Z,34.75
2019-05-18T17:02:07.492Z,34.20
2019-05-18T17:04:37.484Z,34.21
2019-05-18T17:07:07.708Z,34.60
2019-05-18T17:09:37.909Z,35.34
2019-05-18T17:12:08.321Z,35.82
2019-05-18T17:14:38.526Z,36.72
2019-05-18T17:17:09.931Z,37.54
2019-05-18T17:19:40.752Z,37.75
2019-05-18T17:22:11.330Z,37.64
2019-05-18T17:24:41.922Z,37.76
2019-05-18T17:27:12.150Z,37.88
2019-05-18T17:29:42.886Z,38.57
2019-05-18T17:32:12.754Z,39.50
2019-05-18T17:34:42.937Z,40.48
2019-05-18T17:37:13.263Z,41.20
2019-05-18T17:39:45.040Z,42.47
2019-05-18T17:42:16.462Z,43.58
2019-05-18T17:44:50.499Z,44.23
2019-05-18T17:47:24.521Z,45.11
2019-05-18T17:49:54.941Z,45.77
2019-05-18T17:52:25.716Z,46.47
2019-05-18T17:54:57.526Z,47.01
2019-05-18T17:57:27.791Z,47.60
2019-05-18T17:59:57.797Z,48.22
2019-05-18T18:02:28.024Z,48.68
2019-05-18T18:04:58.069Z,49.11
2019-05-18T18:07:28.284Z,49.58
2019-05-18T18:09:58.479Z,50.04
2019-05-18T18:12:29.601Z,50.34
2019-05-18T18:15:00.128Z,50.66
2019-05-18T18:17:30.439Z,51.25
2019-05-18T18:20:01.260Z,51.55
2019-05-18T18:22:31.772Z,51.74
2019-05-18T18:25:02.709Z,51.88
2019-05-18T18:27:34.855Z,52.67
2019-05-18T18:30:09.660Z,52.85
2019-05-18T18:32:41.437Z,53.13
2019-05-18T18:35:14.375Z,53.48
2019-05-18T18:37:48.452Z,53.82
2019-05-18T18:40:23.339Z,53.86
2019-05-18T18:42:57.081Z,54.04
2019-05-18T18:45:27.584Z,54.41
2019-05-18T18:47:57.989Z,54.90
2019-05-18T18:50:31.419Z,55.19
2019-05-18T18:53:16.439Z,55.32
2019-05-18T18:55:46.962Z,55.54
2019-05-18T18:58:17.080Z,55.97
2019-05-18T19:00:49.246Z,55.64
2019-05-18T19:03:20.425Z,56.17
2019-05-18T19:05:53.575Z,56.54
2019-05-18T19:08:24.348Z,53.64
2019-05-18T19:10:57.485Z,52.92
2019-05-18T19:13:28.705Z,52.87
2019-05-18T19:15:59.656Z,52.20
2019-05-18T19:18:30.115Z,52.30
2019-05-18T19:21:01.804Z,52.13
2019-05-18T19:23:32.201Z,52.00
2019-05-18T19:26:07.500Z,51.33
2019-05-18T19:28:38.690Z,50.83
2019-05-18T19:31:11.966Z,50.92
2019-05-18T19:33:42.979Z,51.14
2019-05-18T19:36:13.773Z,51.03
2019-05-18T19:38:47.233Z,51.01
2019-05-18T19:41:18.110Z,51.15
2019-05-18T19:43:49.841Z,51.22
2019-05-18T19:46:21.970Z,51.32
2019-05-18T19:48:52.846Z,51.56
2019-05-18T19:51:23.298Z,51.57
2019-05-18T19:53:57.291Z,51.66
2019-05-18T19:56:27.731Z,51.82
2019-05-18T19:58:58.879Z,51.80
2019-05-18T20:01:29.444Z,52.05
2019-05-18T20:03:59.624Z,52.52
2019-05-18T20:06:30.284Z,52.63
2019-05-18T20:09:00.929Z,52.97
2019-05-18T20:11:31.942Z,53.34
2019-05-18T20:14:02.168Z,53.25
2019-05-18T20:16:32.318Z,53.41
2019-05-18T20:19:02.688Z,53.90
2019-05-18T20:21:33.137Z,54.28
2019-05-18T20:24:03.225Z,54.60
2019-05-18T20:26:34.523Z,54.85
2019-05-18T20:29:06.621Z,55.23
2019-05-18T20:31:40.031Z,55.65
2019-05-18T20:34:18.370Z,55.91
2019-05-18T20:36:49.073Z,56.21
2019-05-18T20:39:19.776Z,56.62
2019-05-18T20:41:51.139Z,56.81
2019-05-18T20:44:23.136Z,56.91
2019-05-18T20:46:53.370Z,57.04
2019-05-18T20:49:24.326Z,56.82
2019-05-18T20:51:55.015Z,56.73
2019-05-18T20:54:25.264Z,57.13
2019-05-18T20:56:55.287Z,57.28
2019-05-18T20:59:25.376Z,57.46
2019-05-18T21:01:55.355Z,57.43
2019-05-18T21:04:25.492Z,57.55
2019-05-18T21:06:57.726Z,57.67
2019-05-18T21:09:27.697Z,57.80
2019-05-18T21:11:57.843Z,58.15
2019-05-18T21:14:27.886Z,58.56
2019-05-18T21:16:57.888Z,58.58
2019-05-18T21:19:27.893Z,58.81
2019-05-18T21:21:58.057Z,59.04
2019-05-18T21:24:28.181Z,59.09
2019-05-18T21:27:00.156Z,59.20
2019-05-18T21:29:30.087Z,59.32
2019-05-18T21:32:00.201Z,59.55
2019-05-18T21:34:30.369Z,59.75
2019-05-18T21:37:00.524Z,60.11
2019-05-18T21:39:30.894Z,60.18
2019-05-18T21:42:01.434Z,60.26
2019-05-18T21:44:31.444Z,60.60
2019-05-18T21:47:01.541Z,60.98
2019-05-18T21:49:32.084Z,61.31
2019-05-18T21:52:02.196Z,61.66
2019-05-18T21:54:32.188Z,61.82
2019-05-18T21:57:02.452Z,62.07
2019-05-18T21:59:32.406Z,62.39
2019-05-18T22:02:02.582Z,62.34
2019-05-18T22:04:33.148Z,62.57
2019-05-18T22:07:03.807Z,62.93
2019-05-18T22:09:34.124Z,63.51
2019-05-18T22:12:04.542Z,63.76
2019-05-18T22:14:34.605Z,63.91
2019-05-18T22:17:05.389Z,64.22
2019-05-18T22:19:35.434Z,64.30
2019-05-18T22:22:05.623Z,64.51
2019-05-18T22:24:35.932Z,64.54
2019-05-18T22:27:06.245Z,64.65
2019-05-18T22:29:36.164Z,65.10
2019-05-18T22:32:06.233Z,65.57
2019-05-18T22:34:36.107Z,65.47
2019-05-18T22:37:06.060Z,65.73
2019-05-18T22:39:37.561Z,65.71
2019-05-18T22:42:07.869Z,65.96
2019-05-18T22:44:37.873Z,66.12
2019-05-18T22:47:07.960Z,66.30
2019-05-18T22:49:38.009Z,66.50
2019-05-18T22:52:08.190Z,66.73
2019-05-18T22:54:38.510Z,67.41
2019-05-18T22:57:08.610Z,67.86
2019-05-18T22:59:38.703Z,68.13
2019-05-18T23:02:08.910Z,68.51
2019-05-18T23:04:39.548Z,68.82
2019-05-18T23:07:09.852Z,68.74
2019-05-18T23:09:40.437Z,68.82
2019-05-18T23:12:10.685Z,68.90
2019-05-18T23:14:41.061Z,68.93
2019-05-18T23:17:10.920Z,69.05
2019-05-18T23:19:40.924Z,69.24
2019-05-18T23:22:10.821Z,69.46
2019-05-18T23:24:41.322Z,69.71
2019-05-18T23:27:11.187Z,69.72
2019-05-18T23:29:41.087Z,69.65
2019-05-18T23:32:11.329Z,69.68
2019-05-18T23:34:41.572Z,69.69
2019-05-18T23:37:11.870Z,69.55
2019-05-18T23:39:41.989Z,69.49
2019-05-18T23:42:12.039Z,69.42
2019-05-18T23:44:42.082Z,69.56
2019-05-18T23:47:12.063Z,69.72
2019-05-18T23:49:41.952Z,69.75
2019-05-18T23:52:12.404Z,69.73
2019-05-18T23:54:42.402Z,69.83
2019-05-18T23:57:12.501Z,70.02
2019-05-18T23:59:42.553Z,70.15
